createdAt,value
2022-12-25T00:01:33.153Z,95687.59
2022-12-25T00:04:02.284Z,95680.50
2022-12-25T00:06:29.944Z,95675.28
2022-12-25T00:08:57.664Z,95671.97
2022-12-25T00:11:25.326Z,95668.44
2022-12-25T00:13:52.975Z,95666.06
2022-12-25T00:16:23.332Z,95661.59
2022-12-25T00:18:51.795Z,95671.25
2022-12-25T00:21:22.049Z,95659.59
2022-12-25T00:23:54.090Z,95664.13
2022-12-25T00:26:21.824Z,95668.16
2022-12-25T00:28:52.472Z,95665.06
2022-12-25T00:31:21.023Z,95671.19
2022-12-25T00:33:50.433Z,95675.31
2022-12-25T00:36:20.068Z,95679.47
2022-12-25T00:38:49.208Z,95679.22
2022-12-25T00:41:39.174Z,95682.53
2022-12-25T00:44:07.231Z,95681.94
2022-12-25T00:46:34.865Z,95677.25
2022-12-25T00:49:02.878Z,95681.94
2022-12-25T00:51:30.479Z,95689.00
2022-12-25T00:53:59.406Z,95678.88
2022-12-25T00:56:27.217Z,95678.38
2022-12-25T00:58:55.359Z,95673.41
2022-12-25T01:01:23.068Z,95671.75
2022-12-25T01:03:50.757Z,95679.63
2022-12-25T01:06:18.407Z,95682.59
2022-12-25T01:08:59.933Z,95683.41
2022-12-25T01:11:29.604Z,95679.06
2022-12-25T01:13:57.541Z,95687.16
2022-12-25T01:16:25.567Z,95684.56
2022-12-25T01:18:53.308Z,95687.78
2022-12-25T01:21:21.984Z,95686.84
2022-12-25T01:23:50.990Z,95681.88
2022-12-25T01:26:19.939Z,95686.97
2022-12-25T01:28:50.616Z,95683.41
2022-12-25T01:31:20.380Z,95677.28
2022-12-25T01:33:48.656Z,95675.41
2022-12-25T01:36:17.390Z,95684.25
2022-12-25T01:38:46.589Z,95684.44
2022-12-25T01:41:16.294Z,95685.91
2022-12-25T01:44:01.076Z,95671.88
2022-12-25T01:46:29.390Z,95674.50
2022-12-25T01:49:00.092Z,95677.00
2022-12-25T01:51:33.200Z,95674.72
2022-12-25T01:54:03.371Z,95677.16
2022-12-25T01:56:32.654Z,95683.31
2022-12-25T01:59:03.561Z,95676.38
2022-12-25T02:01:31.262Z,95673.34
2022-12-25T02:04:06.312Z,95669.22
2022-12-25T02:06:34.768Z,95663.97
2022-12-25T02:09:02.745Z,95660.19
2022-12-25T02:11:50.151Z,95649.09
2022-12-25T02:14:19.286Z,95646.50
2022-12-25T02:16:56.944Z,95657.25
2022-12-25T02:19:37.635Z,95657.13
2022-12-25T02:22:16.941Z,95661.88
2022-12-25T02:24:59.506Z,95664.22
2022-12-25T02:27:53.527Z,95652.31
2022-12-25T02:30:22.175Z,95652.31
2022-12-25T02:33:16.846Z,95647.47
2022-12-25T02:35:47.575Z,95648.31
2022-12-25T02:38:20.420Z,95644.56
2022-12-25T02:40:52.866Z,95655.94
2022-12-25T02:43:43.488Z,95649.09
2022-12-25T02:46:34.022Z,95659.88
2022-12-25T02:49:23.344Z,95664.06
2022-12-25T02:52:16.640Z,95658.50
2022-12-25T02:55:05.229Z,95648.97
2022-12-25T02:57:56.487Z,95656.78
2022-12-25T03:00:43.186Z,95650.66
2022-12-25T03:03:31.190Z,95656.13
2022-12-25T03:06:21.529Z,95656.81
2022-12-25T03:08:54.098Z,95655.56
2022-12-25T03:11:32.594Z,95655.28
2022-12-25T03:14:17.145Z,95662.72
2022-12-25T03:16:53.941Z,95667.38
2022-12-25T03:19:41.682Z,95654.63
2022-12-25T03:22:31.995Z,95651.88
2022-12-25T03:25:17.257Z,95646.13
2022-12-25T03:27:47.582Z,95655.66
2022-12-25T03:30:32.633Z,95653.69
2022-12-25T03:33:36.775Z,95652.38
2022-12-25T03:36:08.512Z,95645.53
2022-12-25T03:39:04.021Z,95644.53
2022-12-25T03:42:01.703Z,95642.72
2022-12-25T03:44:56.597Z,95634.28
2022-12-25T03:48:01.464Z,95632.06
2022-12-25T03:50:52.612Z,95627.81
2022-12-25T03:53:42.341Z,95628.78
2022-12-25T03:56:29.167Z,95628.66
2022-12-25T03:59:22.846Z,95633.72
2022-12-25T04:02:08.984Z,95617.78
2022-12-25T04:04:54.027Z,95616.63
2022-12-25T04:07:36.941Z,95620.50
2022-12-25T04:10:22.706Z,95612.84
2022-12-25T04:13:07.946Z,95610.00
2022-12-25T04:15:53.358Z,95621.94
2022-12-25T04:18:38.705Z,95633.38
2022-12-25T04:21:24.010Z,95623.94
2022-12-25T04:24:22.037Z,95635.38
2022-12-25T04:27:07.590Z,95629.25
2022-12-25T04:29:52.790Z,95624.41
2022-12-25T04:32:38.275Z,95615.31
2022-12-25T04:35:24.053Z,95610.38
2022-12-25T04:37:51.699Z,95620.50
2022-12-25T04:40:21.418Z,95635.72
2022-12-25T04:42:50.863Z,95625.69
2022-12-25T04:45:18.705Z,95631.00
2022-12-25T04:47:46.297Z,95629.81
2022-12-25T04:50:14.025Z,95624.16
2022-12-25T04:52:42.532Z,95613.34
2022-12-25T04:55:11.234Z,95604.94
2022-12-25T04:57:40.305Z,95602.94
2022-12-25T05:00:09.320Z,95603.31
2022-12-25T05:02:37.056Z,95612.72
2022-12-25T05:05:05.291Z,95619.81
2022-12-25T05:07:34.081Z,95625.69
2022-12-25T05:10:01.803Z,95620.50
2022-12-25T05:12:29.394Z,95613.41
2022-12-25T05:14:58.367Z,95616.84
2022-12-25T05:17:26.463Z,95618.50
2022-12-25T05:19:54.069Z,95616.63
2022-12-25T05:22:21.641Z,95613.31
2022-12-25T05:24:49.349Z,95615.09
2022-12-25T05:27:16.975Z,95622.03
2022-12-25T05:29:44.620Z,95612.94
2022-12-25T05:32:13.735Z,95616.16
2022-12-25T05:34:41.351Z,95612.00
2022-12-25T05:37:09.013Z,95615.53
2022-12-25T05:39:36.921Z,95609.53
2022-12-25T05:42:04.629Z,95612.97
2022-12-25T05:44:32.237Z,95617.31
2022-12-25T05:46:59.959Z,95609.63
2022-12-25T05:49:28.954Z,95610.13
2022-12-25T05:51:56.542Z,95615.31
2022-12-25T05:54:24.161Z,95610.25
2022-12-25T05:56:52.108Z,95611.78
2022-12-25T05:59:19.849Z,95594.06
2022-12-25T06:01:47.924Z,95605.41
2022-12-25T06:04:15.616Z,95614.13
2022-12-25T06:06:44.648Z,95614.94
2022-12-25T06:09:13.245Z,95603.28
2022-12-25T06:11:41.270Z,95598.56
2022-12-25T06:14:12.265Z,95603.16
2022-12-25T06:16:40.075Z,95610.47
2022-12-25T06:19:08.255Z,95599.50
2022-12-25T06:21:35.945Z,95606.31
2022-12-25T06:24:05.140Z,95604.53
2022-12-25T06:26:32.849Z,95599.94
2022-12-25T06:29:00.444Z,95602.50
2022-12-25T06:31:28.188Z,95593.41
2022-12-25T06:33:56.281Z,95600.66
2022-12-25T06:36:26.156Z,95598.53
2022-12-25T06:38:54.614Z,95600.34
2022-12-25T06:41:25.818Z,95598.81
2022-12-25T06:43:56.110Z,95604.78
2022-12-25T06:46:25.781Z,95599.63
2022-12-25T06:48:53.871Z,95602.22
2022-12-25T06:51:23.967Z,95602.47
2022-12-25T06:53:53.316Z,95604.09
2022-12-25T06:56:24.214Z,95599.38
2022-12-25T06:58:54.556Z,95603.28
2022-12-25T07:01:25.604Z,95601.03
2022-12-25T07:03:56.137Z,95604.78
2022-12-25T07:06:23.997Z,95605.41
2022-12-25T07:08:51.635Z,95613.06
2022-12-25T07:11:19.803Z,95604.78
2022-12-25T07:13:49.075Z,95605.63
2022-12-25T07:16:17.231Z,95599.50
2022-12-25T07:18:44.927Z,95607.03
2022-12-25T07:21:13.962Z,95595.00
2022-12-25T07:23:41.980Z,95597.38
2022-12-25T07:26:12.023Z,95599.84
2022-12-25T07:28:40.122Z,95600.22
2022-12-25T07:31:11.984Z,95599.50
2022-12-25T07:33:39.616Z,95596.78
2022-12-25T07:36:12.407Z,95598.16
2022-12-25T07:38:40.731Z,95593.94
2022-12-25T07:41:09.371Z,95600.53
2022-12-25T07:43:37.109Z,95598.16
2022-12-25T07:46:05.845Z,95595.81
2022-12-25T07:48:35.016Z,95606.78
2022-12-25T07:51:04.014Z,95591.94
2022-12-25T07:53:31.789Z,95593.47
2022-12-25T07:56:00.833Z,95586.28
2022-12-25T07:58:28.925Z,95584.28
2022-12-25T08:00:57.240Z,95584.38
2022-12-25T08:03:25.060Z,95596.91
2022-12-25T08:05:54.177Z,95590.41
2022-12-25T08:08:22.221Z,95599.88
2022-12-25T08:10:49.818Z,95601.63
2022-12-25T08:13:17.418Z,95587.34
2022-12-25T08:15:45.067Z,95575.31
2022-12-25T08:18:12.831Z,95578.97
2022-12-25T08:20:40.477Z,95581.44
2022-12-25T08:23:09.495Z,95585.22
2022-12-25T08:25:37.343Z,95581.78
2022-12-25T08:28:05.223Z,95592.19
2022-12-25T08:30:32.949Z,95591.13
2022-12-25T08:33:00.957Z,95593.00
2022-12-25T08:35:28.556Z,95586.28
2022-12-25T08:37:56.220Z,95583.94
2022-12-25T08:40:25.264Z,95585.47
2022-12-25T08:42:53.009Z,95583.09
2022-12-25T08:45:20.644Z,95581.56
2022-12-25T08:47:48.290Z,95584.16
2022-12-25T08:50:16.073Z,95574.84
2022-12-25T08:52:43.915Z,95577.06
2022-12-25T08:55:11.889Z,95576.72
2022-12-25T08:57:40.846Z,95573.78
2022-12-25T09:00:09.880Z,95563.59
2022-12-25T09:02:37.604Z,95571.03
2022-12-25T09:05:06.119Z,95566.34
2022-12-25T09:07:33.789Z,95564.22
2022-12-25T09:10:01.404Z,95565.03
2022-12-25T09:12:29.052Z,95557.00
2022-12-25T09:14:58.254Z,95559.59
2022-12-25T09:17:25.839Z,95562.19
2022-12-25T09:19:53.457Z,95559.09
2022-12-25T09:22:21.068Z,95564.28
2022-12-25T09:24:48.699Z,95557.94
2022-12-25T09:27:16.345Z,95555.34
2022-12-25T09:29:43.991Z,95548.97
2022-12-25T09:32:12.944Z,95545.88
2022-12-25T09:34:40.593Z,95545.06
2022-12-25T09:37:08.236Z,95543.47
2022-12-25T09:39:39.422Z,95549.81
2022-12-25T09:42:15.895Z,95543.41
2022-12-25T09:44:48.771Z,95549.22
2022-12-25T09:47:21.542Z,95552.06
2022-12-25T09:49:54.564Z,95535.75
2022-12-25T09:52:26.281Z,95529.56
2022-12-25T09:54:58.731Z,95531.44
2022-12-25T09:57:27.156Z,95534.50
2022-12-25T09:59:55.921Z,95529.69
2022-12-25T10:02:53.840Z,95532.75
2022-12-25T10:05:36.883Z,95544.63
2022-12-25T10:08:15.792Z,95538.06
2022-12-25T10:10:51.856Z,95533.91
2022-12-25T10:13:39.166Z,95535.94
2022-12-25T10:16:18.628Z,95535.63
2022-12-25T10:19:05.874Z,95533.34
2022-12-25T10:21:33.889Z,95531.88
2022-12-25T10:24:10.730Z,95534.88
2022-12-25T10:26:38.471Z,95532.19
2022-12-25T10:29:14.663Z,95522.25
2022-12-25T10:31:46.274Z,95519.81
2022-12-25T10:34:17.329Z,95517.47
2022-12-25T10:36:46.563Z,95515.59
2022-12-25T10:39:18.245Z,95506.31
2022-12-25T10:42:01.019Z,95496.97
2022-12-25T10:44:28.717Z,95495.72
2022-12-25T10:46:57.601Z,95493.56
2022-12-25T10:49:31.291Z,95495.53
2022-12-25T10:51:59.089Z,95485.13
2022-12-25T10:54:28.833Z,95484.72
2022-12-25T10:56:58.698Z,95476.91
2022-12-25T10:59:27.743Z,95472.56
2022-12-25T11:01:57.158Z,95472.06
2022-12-25T11:04:29.424Z,95467.28
2022-12-25T11:07:05.391Z,95467.97
2022-12-25T11:09:33.577Z,95471.97
2022-12-25T11:12:01.880Z,95468.00
2022-12-25T11:14:30.632Z,95472.44
2022-12-25T11:17:09.470Z,95469.53
2022-12-25T11:19:38.418Z,95465.31
2022-12-25T11:22:18.747Z,95457.75
2022-12-25T11:24:46.555Z,95458.03
2022-12-25T11:27:23.198Z,95458.19
2022-12-25T11:29:53.737Z,95458.50
2022-12-25T11:32:26.408Z,95445.06
2022-12-25T11:34:56.516Z,95437.63
2022-12-25T11:37:31.804Z,95439.66
2022-12-25T11:39:59.820Z,95442.16
2022-12-25T11:42:34.155Z,95434.06
2022-12-25T11:45:07.841Z,95435.31
2022-12-25T11:47:42.106Z,95434.88
2022-12-25T11:50:23.621Z,95431.47
2022-12-25T11:52:53.081Z,95427.50
2022-12-25T11:55:37.083Z,95421.84
2022-12-25T11:58:14.244Z,95424.44
2022-12-25T12:00:44.524Z,95418.50
2022-12-25T12:03:20.012Z,95410.78
2022-12-25T12:05:54.227Z,95406.84
2022-12-25T12:08:21.874Z,95400.44
2022-12-25T12:11:15.621Z,95405.25
2022-12-25T12:13:55.300Z,95404.03
2022-12-25T12:16:23.093Z,95397.44
2022-12-25T12:18:51.025Z,95388.78
2022-12-25T12:21:23.692Z,95392.97
2022-12-25T12:23:56.245Z,95388.03
2022-12-25T12:26:26.388Z,95387.81
2022-12-25T12:28:57.044Z,95386.59
2022-12-25T12:31:25.622Z,95383.28
2022-12-25T12:33:55.672Z,95378.91
2022-12-25T12:36:35.689Z,95376.56
2022-12-25T12:39:05.939Z,95366.22
2022-12-25T12:41:47.118Z,95352.66
2022-12-25T12:44:16.972Z,95361.03
2022-12-25T12:46:53.117Z,95353.28
2022-12-25T12:49:23.949Z,95357.56
2022-12-25T12:52:06.088Z,95364.44
2022-12-25T12:54:34.225Z,95360.13
2022-12-25T12:57:03.136Z,95354.78
2022-12-25T12:59:39.469Z,95354.88
2022-12-25T13:02:25.516Z,95352.81
2022-12-25T13:05:00.531Z,95352.00
2022-12-25T13:07:44.976Z,95354.31
2022-12-25T13:10:24.252Z,95357.78
2022-12-25T13:12:57.585Z,95348.16
2022-12-25T13:15:28.322Z,95359.16
2022-12-25T13:18:06.776Z,95353.91
2022-12-25T13:20:44.381Z,95359.75
2022-12-25T13:23:26.100Z,95357.84
2022-12-25T13:25:55.089Z,95348.38
2022-12-25T13:28:27.295Z,95349.03
2022-12-25T13:30:54.925Z,95343.31
2022-12-25T13:33:23.291Z,95325.72
2022-12-25T13:35:51.367Z,95314.81
2022-12-25T13:38:20.785Z,95314.41
2022-12-25T13:41:06.651Z,95317.16
2022-12-25T13:43:34.350Z,95320.94
2022-12-25T13:46:01.998Z,95334.41
2022-12-25T13:48:31.372Z,95332.53
2022-12-25T13:51:00.542Z,95328.56
2022-12-25T13:53:29.646Z,95335.41
2022-12-25T13:55:59.899Z,95339.66
2022-12-25T13:58:29.937Z,95340.19
2022-12-25T14:00:59.668Z,95346.81
2022-12-25T14:03:34.741Z,95336.13
2022-12-25T14:06:03.614Z,95340.78
2022-12-25T14:08:35.256Z,95349.28
2022-12-25T14:11:05.393Z,95342.56
2022-12-25T14:13:37.036Z,95337.34
2022-12-25T14:16:05.157Z,95338.44
2022-12-25T14:18:33.860Z,95348.31
2022-12-25T14:21:04.434Z,95335.72
2022-12-25T14:23:42.555Z,95337.06
2022-12-25T14:26:16.484Z,95328.84
2022-12-25T14:28:48.872Z,95331.84
2022-12-25T14:31:17.045Z,95335.44
2022-12-25T14:33:44.761Z,95339.94
2022-12-25T14:36:14.343Z,95339.56
2022-12-25T14:38:44.204Z,95333.91
2022-12-25T14:41:33.244Z,95343.81
2022-12-25T14:44:03.176Z,95351.72
2022-12-25T14:46:33.047Z,95346.66
2022-12-25T14:49:01.931Z,95343.38
2022-12-25T14:51:31.187Z,95344.22
2022-12-25T14:54:03.832Z,95345.16
2022-12-25T14:56:38.131Z,95351.47
2022-12-25T14:59:07.195Z,95349.56
2022-12-25T15:01:37.510Z,95358.88
2022-12-25T15:04:08.253Z,95349.13
2022-12-25T15:06:35.979Z,95347.06
2022-12-25T15:09:08.079Z,95353.88
2022-12-25T15:11:35.759Z,95338.22
2022-12-25T15:14:03.379Z,95339.03
2022-12-25T15:16:35.678Z,95337.69
2022-12-25T15:19:03.384Z,95340.97
2022-12-25T15:21:34.483Z,95336.59
2022-12-25T15:24:02.415Z,95345.94
2022-12-25T15:26:33.020Z,95344.44
2022-12-25T15:29:00.606Z,95350.06
2022-12-25T15:31:30.828Z,95351.16
2022-12-25T15:34:00.785Z,95345.41
2022-12-25T15:36:29.027Z,95346.66
2022-12-25T15:38:57.233Z,95341.84
2022-12-25T15:41:44.999Z,95343.78
2022-12-25T15:44:14.142Z,95350.34
2022-12-25T15:49:16.214Z,95353.53
2022-12-25T15:51:44.754Z,95351.91
2022-12-25T15:54:12.570Z,95343.81
2022-12-25T15:56:44.109Z,95342.72
2022-12-25T15:59:14.369Z,95344.75
2022-12-25T16:01:46.079Z,95356.69
2022-12-25T16:04:13.748Z,95350.22
2022-12-25T16:06:41.396Z,95343.81
2022-12-25T16:09:10.630Z,95341.06
2022-12-25T16:11:38.403Z,95357.38
2022-12-25T16:14:06.407Z,95364.09
2022-12-25T16:16:35.892Z,95361.47
2022-12-25T16:19:03.680Z,95341.59
2022-12-25T16:21:39.338Z,95349.28
2022-12-25T16:24:07.648Z,95349.97
2022-12-25T16:26:35.645Z,95346.53
2022-12-25T16:29:07.217Z,95360.53
2022-12-25T16:31:37.230Z,95356.94
2022-12-25T16:34:05.402Z,95358.31
2022-12-25T16:36:33.701Z,95359.41
2022-12-25T16:39:01.479Z,95353.47
2022-12-25T16:41:29.082Z,95356.47
2022-12-25T16:43:56.661Z,95364.56
2022-12-25T16:46:24.376Z,95368.47
2022-12-25T16:48:53.330Z,95360.47
2022-12-25T16:51:22.244Z,95357.28
2022-12-25T16:53:49.880Z,95368.84
2022-12-25T16:56:20.433Z,95358.16
2022-12-25T16:58:48.991Z,95357.84
2022-12-25T17:01:18.154Z,95358.66
2022-12-25T17:03:46.514Z,95366.44
2022-12-25T17:06:16.682Z,95369.69
2022-12-25T17:08:45.073Z,95366.53
2022-12-25T17:11:13.725Z,95362.19
2022-12-25T17:13:41.335Z,95370.00
2022-12-25T17:16:16.333Z,95372.94
2022-12-25T17:18:44.014Z,95371.09
2022-12-25T17:21:12.057Z,95368.28
2022-12-25T17:23:41.031Z,95362.78
2022-12-25T17:26:08.647Z,95358.88
2022-12-25T17:28:36.294Z,95364.66
2022-12-25T17:31:04.464Z,95354.03
2022-12-25T17:33:33.766Z,95346.13
2022-12-25T17:36:05.333Z,95354.75
2022-12-25T17:38:34.523Z,95346.63
2022-12-25T17:41:06.287Z,95350.59
2022-12-25T17:43:35.263Z,95356.34
2022-12-25T17:46:05.837Z,95354.03
2022-12-25T17:48:33.661Z,95350.47
2022-12-25T17:51:02.553Z,95358.94
2022-12-25T17:53:30.185Z,95347.25
2022-12-25T17:55:58.130Z,95357.66
2022-12-25T17:58:28.096Z,95357.13
2022-12-25T18:00:56.260Z,95350.03
2022-12-25T18:03:24.196Z,95351.56
2022-12-25T18:05:51.838Z,95362.28
2022-12-25T18:08:19.570Z,95371.16
2022-12-25T18:10:47.437Z,95369.78
2022-12-25T18:13:15.112Z,95383.28
2022-12-25T18:15:44.313Z,95382.88
2022-12-25T18:18:11.938Z,95385.03
2022-12-25T18:20:42.257Z,95390.78
2022-12-25T18:23:10.243Z,95398.28
2022-12-25T18:25:41.541Z,95396.66
2022-12-25T18:28:09.825Z,95397.25
2022-12-25T18:30:39.828Z,95394.09
2022-12-25T18:33:09.346Z,95394.09
2022-12-25T18:35:39.513Z,95399.16
2022-12-25T18:38:09.155Z,95393.84
2022-12-25T18:40:41.667Z,95394.81
2022-12-25T18:43:09.557Z,95397.66
2022-12-25T18:45:38.263Z,95415.84
2022-12-25T18:48:08.072Z,95408.97
2022-12-25T18:50:36.556Z,95407.59
2022-12-25T18:53:05.472Z,95416.09
2022-12-25T18:55:33.392Z,95414.06
2022-12-25T18:58:01.224Z,95417.97
2022-12-25T19:00:28.963Z,95429.44
2022-12-25T19:02:58.606Z,95417.56
2022-12-25T19:05:27.720Z,95422.44
2022-12-25T19:07:55.447Z,95421.16
2022-12-25T19:10:23.085Z,95418.91
2022-12-25T19:12:50.695Z,95420.06
2022-12-25T19:15:18.275Z,95416.50
2022-12-25T19:17:45.876Z,95408.84
2022-12-25T19:20:13.600Z,95416.91
2022-12-25T19:22:42.883Z,95414.06
2022-12-25T19:25:10.965Z,95408.88
2022-12-25T19:27:38.610Z,95409.84
2022-12-25T19:30:07.238Z,95412.44
2022-12-25T19:32:35.284Z,95417.34
2022-12-25T19:35:04.516Z,95432.88
2022-12-25T19:37:32.182Z,95418.91
2022-12-25T19:40:01.485Z,95424.56
2022-12-25T19:42:29.099Z,95423.59
2022-12-25T19:44:56.885Z,95428.34
2022-12-25T19:47:24.590Z,95419.88
2022-12-25T19:49:53.319Z,95412.53
2022-12-25T19:52:22.020Z,95424.19
2022-12-25T19:54:52.213Z,95426.31
2022-12-25T19:57:21.199Z,95427.00
2022-12-25T19:59:50.101Z,95423.19
2022-12-25T20:02:18.024Z,95429.22
2022-12-25T20:04:45.715Z,95421.59
2022-12-25T20:07:13.312Z,95427.06
2022-12-25T20:09:40.959Z,95420.78
2022-12-25T20:12:10.364Z,95420.41
2022-12-25T20:14:39.315Z,95417.69
2022-12-25T20:17:12.182Z,95415.19
2022-12-25T20:19:43.072Z,95424.22
2022-12-25T20:22:10.697Z,95425.03
2022-12-25T20:24:38.375Z,95426.03
2022-12-25T20:27:05.951Z,95433.97
2022-12-25T20:29:33.937Z,95433.53
2022-12-25T20:32:03.142Z,95434.41
2022-12-25T20:34:31.126Z,95425.78
2022-12-25T20:36:59.004Z,95431.19
2022-12-25T20:39:28.648Z,95426.69
2022-12-25T20:41:57.205Z,95431.91
2022-12-25T20:44:24.983Z,95437.19
2022-12-25T20:46:52.601Z,95436.72
2022-12-25T20:49:21.560Z,95440.13
2022-12-25T20:51:49.204Z,95441.78
2022-12-25T20:54:16.831Z,95452.19
2022-12-25T20:56:44.397Z,95438.66
2022-12-25T20:59:12.599Z,95442.09
2022-12-25T21:01:40.366Z,95445.63
2022-12-25T21:04:16.238Z,95452.75
2022-12-25T21:06:46.196Z,95452.03
2022-12-25T21:09:13.848Z,95453.72
2022-12-25T21:11:41.661Z,95459.47
2022-12-25T21:14:09.360Z,95452.63
2022-12-25T21:16:37.133Z,95463.28
2022-12-25T21:19:04.808Z,95455.72
2022-12-25T21:21:32.530Z,95454.22
2022-12-25T21:24:01.483Z,95461.19
2022-12-25T21:26:31.359Z,95468.41
2022-12-25T21:29:01.496Z,95469.50
2022-12-25T21:31:29.677Z,95472.19
2022-12-25T21:33:57.726Z,95472.19
2022-12-25T21:36:27.715Z,95476.47
2022-12-25T21:38:58.327Z,95484.13
2022-12-25T21:41:28.606Z,95485.56
2022-12-25T21:43:56.746Z,95483.34
2022-12-25T21:46:25.754Z,95489.97
2022-12-25T21:48:53.631Z,95498.84
2022-12-25T21:51:41.071Z,95501.53
2022-12-25T21:54:09.319Z,95498.25
2022-12-25T21:56:44.434Z,95492.22
2022-12-25T21:59:16.326Z,95499.22
2022-12-25T22:01:45.011Z,95514.69
2022-12-25T22:04:14.200Z,95513.50
2022-12-25T22:06:59.686Z,95509.88
2022-12-25T22:09:27.405Z,95500.88
2022-12-25T22:12:14.031Z,95507.41
2022-12-25T22:14:54.929Z,95513.88
2022-12-25T22:17:43.067Z,95525.09
2022-12-25T22:20:13.270Z,95522.50
2022-12-25T22:22:40.918Z,95526.84
2022-12-25T22:25:09.185Z,95525.31
2022-12-25T22:27:39.995Z,95530.78
2022-12-25T22:30:10.771Z,95534.56
2022-12-25T22:32:38.448Z,95527.91
2022-12-25T22:35:07.469Z,95519.69
2022-12-25T22:37:35.915Z,95514.94
2022-12-25T22:40:04.152Z,95521.94
2022-12-25T22:42:32.047Z,95519.22
2022-12-25T22:45:01.026Z,95519.34
2022-12-25T22:47:28.729Z,95525.00
2022-12-25T22:49:56.398Z,95526.91
2022-12-25T22:52:24.085Z,95519.09
2022-12-25T22:54:52.147Z,95521.34
2022-12-25T22:57:19.818Z,95517.69
2022-12-25T22:59:47.503Z,95522.88
2022-12-25T23:02:16.608Z,95517.69
2022-12-25T23:04:44.567Z,95522.03
2022-12-25T23:07:14.296Z,95523.56
2022-12-25T23:09:42.237Z,95531.00
2022-12-25T23:12:30.359Z,95516.97
2022-12-25T23:14:57.321Z,95523.31
2022-12-25T23:17:44.125Z,95519.06
2022-12-25T23:20:32.446Z,95522.66
2022-12-25T23:23:17.784Z,95526.06
2022-12-25T23:26:03.093Z,95519.19
2022-12-25T23:28:48.476Z,95528.75
2022-12-25T23:31:16.275Z,95526.28
2022-12-25T23:33:45.374Z,95526.75
2022-12-25T23:36:13.282Z,95530.66
2022-12-25T23:38:40.978Z,95534.28
2022-12-25T23:41:08.657Z,95536.88
2022-12-25T23:43:36.370Z,95534.91
2022-12-25T23:46:04.243Z,95533.84
2022-12-25T23:48:32.117Z,95538.69
2022-12-25T23:51:04.911Z,95543.78
2022-12-25T23:53:32.934Z,95535.38
2022-12-25T23:56:00.934Z,95538.97
2022-12-25T23:58:29.595Z,95539.09
